createdAt,value
2022-11-26T00:00:29.526Z,4.30
2022-11-26T00:02:56.385Z,3.80
2022-11-26T00:05:23.507Z,4.57
2022-11-26T00:07:56.198Z,4.30
2022-11-26T00:10:25.739Z,3.97
2022-11-26T00:12:52.910Z,3.87
2022-11-26T00:15:25.271Z,4.20
2022-11-26T00:17:53.174Z,3.57
2022-11-26T00:20:27.943Z,3.70
2022-11-26T00:22:56.917Z,4.30
2022-11-26T00:25:27.297Z,3.57
2022-11-26T00:27:55.905Z,3.30
2022-11-26T00:30:25.385Z,3.80
2022-11-26T00:32:53.523Z,3.20
2022-11-26T00:35:21.167Z,3.90
2022-11-26T00:37:51.220Z,3.87
2022-11-26T00:40:22.501Z,3.73
2022-11-26T00:42:50.214Z,3.43
2022-11-26T00:45:24.913Z,3.97
2022-11-26T00:47:52.090Z,3.80
2022-11-26T00:50:24.339Z,3.70
2022-11-26T00:52:54.375Z,3.50
2022-11-26T00:55:37.180Z,3.70
2022-11-26T00:58:05.250Z,3.63
2022-11-26T01:00:34.578Z,3.13
2022-11-26T01:03:01.958Z,2.97
2022-11-26T01:05:30.727Z,3.33
2022-11-26T01:08:06.534Z,3.20
2022-11-26T01:10:33.098Z,3.20
2022-11-26T01:12:59.648Z,2.90
2022-11-26T01:15:27.030Z,2.70
2022-11-26T01:17:53.895Z,3.10
2022-11-26T01:20:30.944Z,2.53
2022-11-26T01:22:59.004Z,3.17
2022-11-26T01:25:27.068Z,3.33
2022-11-26T01:27:54.272Z,3.27
2022-11-26T01:30:29.577Z,3.27
2022-11-26T01:32:56.261Z,2.97
2022-11-26T01:35:23.378Z,2.97
2022-11-26T01:37:50.079Z,2.70
2022-11-26T01:40:31.336Z,2.70
2022-11-26T01:43:12.125Z,3.60
2022-11-26T01:45:38.833Z,2.80
2022-11-26T01:48:23.811Z,3.40
2022-11-26T01:50:53.278Z,3.20
2022-11-26T01:53:29.006Z,2.70
2022-11-26T01:56:02.633Z,2.93
2022-11-26T01:58:40.493Z,3.13
2022-11-26T02:01:07.396Z,3.10
2022-11-26T02:03:50.272Z,3.07
2022-11-26T02:06:20.927Z,3.27
2022-11-26T02:08:47.765Z,2.70
2022-11-26T02:11:21.585Z,2.80
2022-11-26T02:13:51.917Z,2.70
2022-11-26T02:16:31.605Z,2.73
2022-11-26T02:19:20.870Z,2.83
2022-11-26T02:21:56.317Z,3.10
2022-11-26T02:24:40.895Z,3.00
2022-11-26T02:27:30.881Z,2.50
2022-11-26T02:30:06.306Z,2.57
2022-11-26T02:33:02.600Z,3.27
2022-11-26T02:35:45.973Z,2.97
2022-11-26T02:38:19.466Z,2.97
2022-11-26T02:40:46.229Z,2.53
2022-11-26T02:43:15.941Z,3.37
2022-11-26T02:45:55.908Z,3.17
2022-11-26T02:48:27.253Z,3.40
2022-11-26T02:51:04.578Z,2.80
2022-11-26T02:53:33.706Z,2.87
2022-11-26T02:56:07.374Z,2.40
2022-11-26T02:58:34.920Z,2.40
2022-11-26T03:01:07.329Z,2.43
2022-11-26T03:03:39.188Z,2.67
2022-11-26T03:06:09.614Z,2.67
2022-11-26T03:08:36.884Z,2.73
2022-11-26T03:11:04.077Z,2.50
2022-11-26T03:13:30.906Z,2.63
2022-11-26T03:15:57.697Z,2.67
2022-11-26T03:18:24.474Z,2.80
2022-11-26T03:20:52.487Z,2.43
2022-11-26T03:23:19.307Z,2.57
2022-11-26T03:25:45.991Z,2.67
2022-11-26T03:28:12.584Z,2.90
2022-11-26T03:30:39.151Z,2.53
2022-11-26T03:33:05.709Z,2.90
2022-11-26T03:35:32.293Z,2.63
2022-11-26T03:37:58.850Z,2.40
2022-11-26T03:40:25.529Z,2.70
2022-11-26T03:42:52.099Z,2.87
2022-11-26T03:45:18.937Z,2.47
2022-11-26T03:47:45.470Z,2.50
2022-11-26T03:50:12.384Z,2.77
2022-11-26T03:52:38.961Z,2.53
2022-11-26T03:55:05.960Z,2.70
2022-11-26T03:57:32.541Z,2.53
2022-11-26T03:59:59.111Z,2.50
2022-11-26T04:02:25.677Z,2.60
2022-11-26T04:04:52.325Z,2.23
2022-11-26T04:07:19.007Z,2.80
2022-11-26T04:09:45.582Z,2.70
2022-11-26T04:12:12.125Z,2.30
2022-11-26T04:14:38.998Z,2.80
2022-11-26T04:17:05.755Z,2.47
2022-11-26T04:19:32.316Z,2.83
2022-11-26T04:21:58.876Z,2.60
2022-11-26T04:24:25.472Z,2.10
2022-11-26T04:26:52.116Z,2.70
2022-11-26T04:29:18.709Z,2.20
2022-11-26T04:31:45.542Z,2.73
2022-11-26T04:34:12.199Z,2.40
2022-11-26T04:36:39.574Z,2.57
2022-11-26T04:39:06.243Z,2.90
2022-11-26T04:41:32.802Z,2.60
2022-11-26T04:43:59.375Z,2.50
2022-11-26T04:46:25.938Z,2.33
2022-11-26T04:48:52.487Z,2.63
2022-11-26T04:51:19.144Z,3.07
2022-11-26T04:53:45.686Z,3.00
2022-11-26T04:56:12.284Z,2.87
2022-11-26T04:58:38.832Z,3.20
2022-11-26T05:01:05.750Z,3.07
2022-11-26T05:03:32.389Z,2.83
2022-11-26T05:05:59.004Z,3.20
2022-11-26T05:08:25.557Z,3.27
2022-11-26T05:10:56.193Z,3.43
2022-11-26T05:13:22.833Z,3.00
2022-11-26T05:15:49.599Z,3.73
2022-11-26T05:18:16.426Z,3.67
2022-11-26T05:20:42.996Z,3.57
2022-11-26T05:23:09.902Z,3.70
2022-11-26T05:25:36.754Z,3.90
2022-11-26T05:28:03.529Z,4.17
2022-11-26T05:30:30.250Z,4.07
2022-11-26T05:32:56.809Z,4.20
2022-11-26T05:35:23.462Z,4.77
2022-11-26T05:37:50.027Z,4.07
2022-11-26T05:40:16.730Z,4.47
2022-11-26T05:42:43.555Z,4.37
2022-11-26T05:45:10.446Z,4.27
2022-11-26T05:47:37.036Z,4.63
2022-11-26T05:50:04.299Z,5.17
2022-11-26T05:52:30.981Z,5.00
2022-11-26T05:54:57.546Z,5.63
2022-11-26T05:57:24.084Z,5.23
2022-11-26T05:59:50.789Z,5.70
2022-11-26T06:02:17.578Z,5.70
2022-11-26T06:04:44.599Z,5.23
2022-11-26T06:07:11.209Z,4.47
2022-11-26T06:09:38.051Z,5.10
2022-11-26T06:12:05.226Z,5.23
2022-11-26T06:14:31.848Z,5.40
2022-11-26T06:16:58.472Z,5.50
2022-11-26T06:19:25.239Z,5.17
2022-11-26T06:21:51.768Z,5.13
2022-11-26T06:24:18.305Z,4.57
2022-11-26T06:26:44.877Z,4.70
2022-11-26T06:29:11.515Z,5.47
2022-11-26T06:31:38.099Z,4.73
2022-11-26T06:34:04.710Z,5.10
2022-11-26T06:36:31.282Z,4.57
2022-11-26T06:39:00.750Z,4.67
2022-11-26T06:41:27.369Z,5.20
2022-11-26T06:43:53.949Z,4.53
2022-11-26T06:46:20.697Z,4.27
2022-11-26T06:48:47.314Z,4.23
2022-11-26T06:51:15.973Z,4.27
2022-11-26T06:53:42.629Z,4.70
2022-11-26T06:56:18.447Z,4.10
2022-11-26T06:58:46.948Z,3.90
2022-11-26T07:01:20.829Z,4.27
2022-11-26T07:03:47.748Z,4.27
2022-11-26T07:06:22.653Z,3.93
2022-11-26T07:08:50.007Z,3.53
2022-11-26T07:11:17.159Z,3.97
2022-11-26T07:13:43.948Z,4.37
2022-11-26T07:16:11.188Z,3.83
2022-11-26T07:18:38.113Z,4.00
2022-11-26T07:21:13.993Z,4.50
2022-11-26T07:23:41.261Z,3.70
2022-11-26T07:26:09.867Z,3.97
2022-11-26T07:28:37.057Z,4.37
2022-11-26T07:31:16.515Z,3.77
2022-11-26T07:33:44.858Z,3.23
2022-11-26T07:36:17.361Z,4.10
2022-11-26T07:38:44.278Z,3.70
2022-11-26T07:41:13.511Z,4.10
2022-11-26T07:43:41.898Z,4.03
2022-11-26T07:46:10.892Z,3.53
2022-11-26T07:48:39.899Z,4.13
2022-11-26T07:51:08.306Z,3.53
2022-11-26T07:53:36.011Z,3.60
2022-11-26T07:56:06.393Z,3.90
2022-11-26T07:58:33.222Z,3.50
2022-11-26T08:01:10.760Z,3.47
2022-11-26T08:03:41.924Z,3.47
2022-11-26T08:06:10.681Z,3.90
2022-11-26T08:08:37.348Z,3.53
2022-11-26T08:11:05.717Z,3.90
2022-11-26T08:13:32.273Z,3.60
2022-11-26T08:15:58.870Z,3.90
2022-11-26T08:18:25.528Z,3.13
2022-11-26T08:20:56.294Z,3.70
2022-11-26T08:23:24.181Z,4.17
2022-11-26T08:26:20.615Z,3.60
2022-11-26T08:28:38.361Z,3.60
2022-11-26T08:31:08.087Z,3.97
2022-11-26T08:33:35.049Z,3.30
2022-11-26T08:36:08.994Z,4.07
2022-11-26T08:38:36.327Z,3.90
2022-11-26T08:41:05.224Z,3.40
2022-11-26T08:43:58.701Z,3.83
2022-11-26T08:46:18.628Z,3.73
2022-11-26T08:48:45.445Z,3.87
2022-11-26T08:51:12.961Z,3.13
2022-11-26T08:53:39.821Z,4.53
2022-11-26T08:56:12.313Z,3.83
2022-11-26T08:58:41.708Z,3.93
2022-11-26T09:01:10.684Z,4.20
2022-11-26T09:03:37.927Z,4.23
2022-11-26T09:06:06.028Z,4.30
2022-11-26T09:08:34.736Z,3.60
2022-11-26T09:11:01.289Z,3.57
2022-11-26T09:13:29.907Z,3.53
2022-11-26T09:15:56.507Z,3.50
2022-11-26T09:18:23.036Z,3.33
2022-11-26T09:20:52.906Z,3.80
2022-11-26T09:23:23.485Z,4.13
2022-11-26T09:25:50.688Z,3.87
2022-11-26T09:28:17.265Z,4.03
2022-11-26T09:30:43.802Z,4.20
2022-11-26T09:33:10.348Z,4.13
2022-11-26T09:35:36.933Z,3.73
2022-11-26T09:38:03.494Z,3.93
2022-11-26T09:40:45.732Z,3.70
2022-11-26T09:43:37.861Z,3.50
2022-11-26T09:46:05.611Z,3.30
2022-11-26T09:48:34.078Z,3.53
2022-11-26T09:51:07.950Z,3.87
2022-11-26T09:53:40.234Z,3.50
2022-11-26T09:56:13.260Z,3.83
2022-11-26T09:58:48.367Z,3.83
2022-11-26T10:01:20.510Z,3.50
2022-11-26T10:03:47.629Z,3.40
2022-11-26T10:06:30.693Z,3.87
2022-11-26T10:09:03.260Z,3.80
2022-11-26T10:11:41.952Z,4.03
2022-11-26T10:14:45.739Z,3.47
2022-11-26T10:17:30.864Z,3.87
2022-11-26T10:20:32.815Z,3.80
2022-11-26T10:23:33.454Z,3.57
2022-11-26T10:26:23.555Z,3.97
2022-11-26T10:28:59.625Z,4.10
2022-11-26T10:31:31.642Z,3.87
2022-11-26T10:34:02.204Z,3.80
2022-11-26T10:36:41.581Z,4.10
2022-11-26T10:39:13.671Z,3.87
2022-11-26T10:41:40.291Z,4.23
2022-11-26T10:44:37.483Z,4.23
2022-11-26T10:47:24.003Z,4.03
2022-11-26T10:49:52.552Z,3.77
2022-11-26T10:52:24.730Z,3.80
2022-11-26T10:55:27.600Z,4.13
2022-11-26T10:58:07.702Z,4.43
2022-11-26T11:00:38.909Z,4.07
2022-11-26T11:03:38.207Z,3.83
2022-11-26T11:06:21.437Z,4.03
2022-11-26T11:08:52.501Z,3.70
2022-11-26T11:11:25.467Z,4.10
2022-11-26T11:13:52.915Z,3.30
2022-11-26T11:16:27.469Z,3.73
2022-11-26T11:18:59.533Z,4.30
2022-11-26T11:21:33.787Z,4.00
2022-11-26T11:24:23.984Z,3.80
2022-11-26T11:26:55.877Z,3.83
2022-11-26T11:29:28.143Z,3.87
2022-11-26T11:31:56.487Z,4.27
2022-11-26T11:34:29.621Z,4.33
2022-11-26T11:37:05.021Z,3.87
2022-11-26T11:39:35.615Z,4.20
2022-11-26T11:42:07.217Z,4.20
2022-11-26T11:44:54.661Z,3.87
2022-11-26T11:47:44.365Z,4.10
2022-11-26T11:50:58.950Z,3.30
2022-11-26T11:54:01.905Z,3.97
2022-11-26T11:56:41.677Z,4.47
2022-11-26T11:59:47.542Z,3.87
2022-11-26T12:02:27.146Z,3.87
2022-11-26T12:05:06.374Z,3.93
2022-11-26T12:07:39.664Z,4.00
2022-11-26T12:10:13.548Z,4.13
2022-11-26T12:12:50.750Z,3.80
2022-11-26T12:16:03.852Z,3.60
2022-11-26T12:18:51.522Z,3.97
2022-11-26T12:21:29.163Z,3.43
2022-11-26T12:24:07.098Z,3.47
2022-11-26T12:26:49.432Z,4.20
2022-11-26T12:29:31.919Z,3.70
2022-11-26T12:32:05.260Z,4.00
2022-11-26T12:34:36.003Z,3.87
2022-11-26T12:37:07.016Z,3.80
2022-11-26T12:39:36.624Z,4.07
2022-11-26T12:42:14.703Z,3.30
2022-11-26T12:44:44.122Z,4.70
2022-11-26T12:47:37.093Z,3.47
2022-11-26T12:50:22.918Z,3.90
2022-11-26T12:53:01.381Z,3.50
2022-11-26T12:55:40.059Z,3.87
2022-11-26T12:58:09.648Z,3.53
2022-11-26T13:00:36.697Z,3.20
2022-11-26T13:03:06.572Z,3.70
2022-11-26T13:05:52.004Z,3.27
2022-11-26T13:08:21.335Z,3.30
2022-11-26T13:11:12.725Z,3.47
2022-11-26T13:14:14.445Z,3.90
2022-11-26T13:17:05.765Z,3.70
2022-11-26T13:19:44.958Z,3.23
2022-11-26T13:22:53.804Z,3.43
2022-11-26T13:25:40.749Z,3.20
2022-11-26T13:28:35.770Z,3.63
2022-11-26T13:31:40.020Z,3.60
2022-11-26T13:34:24.939Z,3.60
2022-11-26T13:37:00.849Z,3.77
2022-11-26T13:39:59.841Z,3.03
2022-11-26T13:42:43.782Z,3.77
2022-11-26T13:45:34.509Z,3.43
2022-11-26T13:48:36.486Z,3.70
2022-11-26T13:51:26.361Z,3.40
2022-11-26T13:54:05.505Z,3.70
2022-11-26T13:56:34.398Z,3.57
2022-11-26T13:59:28.005Z,3.63
2022-11-26T14:01:55.451Z,3.80
2022-11-26T14:04:24.771Z,3.60
2022-11-26T14:07:06.517Z,3.37
2022-11-26T14:09:44.904Z,4.10
2022-11-26T14:12:15.822Z,3.50
2022-11-26T14:14:43.853Z,3.43
2022-11-26T14:17:12.570Z,4.03
2022-11-26T14:19:45.008Z,4.00
2022-11-26T14:22:11.505Z,3.77
2022-11-26T14:24:59.982Z,4.50
2022-11-26T14:27:31.012Z,3.97
2022-11-26T14:30:03.386Z,3.77
2022-11-26T14:32:36.184Z,3.63
2022-11-26T14:35:02.977Z,3.50
2022-11-26T14:37:31.069Z,3.73
2022-11-26T14:40:19.716Z,4.17
2022-11-26T14:42:46.270Z,4.10
2022-11-26T14:45:18.349Z,4.30
2022-11-26T14:47:49.750Z,4.00
2022-11-26T14:50:19.925Z,4.50
2022-11-26T14:52:46.813Z,3.70
2022-11-26T14:55:24.002Z,4.10
2022-11-26T14:57:56.340Z,3.73
2022-11-26T15:00:29.361Z,4.00
2022-11-26T15:02:56.397Z,4.43
2022-11-26T15:05:25.506Z,4.50
2022-11-26T15:08:15.994Z,4.70
2022-11-26T15:10:59.502Z,4.53
2022-11-26T15:13:30.736Z,4.97
2022-11-26T15:15:59.922Z,5.40
2022-11-26T15:18:32.585Z,4.57
2022-11-26T15:21:01.537Z,4.90
2022-11-26T15:23:32.169Z,4.50
2022-11-26T15:26:00.214Z,3.50
2022-11-26T15:28:27.412Z,4.10
2022-11-26T15:30:53.995Z,3.70
2022-11-26T15:33:21.480Z,3.60
2022-11-26T15:35:56.584Z,4.30
2022-11-26T15:38:28.759Z,3.93
2022-11-26T15:40:58.357Z,3.53
2022-11-26T15:43:33.276Z,3.63
2022-11-26T15:46:11.424Z,3.67
2022-11-26T15:48:58.534Z,3.60
2022-11-26T15:51:35.539Z,3.60
2022-11-26T15:54:06.097Z,3.87
2022-11-26T15:56:37.248Z,3.93
2022-11-26T15:59:13.783Z,3.43
2022-11-26T16:01:44.602Z,3.40
2022-11-26T16:04:39.025Z,3.23
2022-11-26T16:07:14.336Z,3.40
2022-11-26T16:09:41.916Z,3.80
2022-11-26T16:12:32.777Z,4.07
2022-11-26T16:15:19.885Z,4.10
2022-11-26T16:17:47.877Z,3.50
2022-11-26T16:20:26.769Z,3.70
2022-11-26T16:22:56.909Z,3.90
2022-11-26T16:25:24.736Z,4.50
2022-11-26T16:28:09.595Z,4.30
2022-11-26T16:30:37.097Z,3.87
2022-11-26T16:33:05.067Z,3.37
2022-11-26T16:35:47.859Z,3.87
2022-11-26T16:38:22.842Z,3.50
2022-11-26T16:40:50.366Z,4.00
2022-11-26T16:43:17.530Z,4.33
2022-11-26T16:45:44.595Z,4.43
2022-11-26T16:48:24.614Z,4.33
2022-11-26T16:50:53.276Z,4.50
2022-11-26T16:53:19.828Z,4.37
2022-11-26T16:55:46.985Z,4.03
2022-11-26T16:58:29.456Z,4.17
2022-11-26T17:00:56.871Z,4.93
2022-11-26T17:03:25.105Z,4.47
2022-11-26T17:05:55.230Z,4.57
2022-11-26T17:08:22.598Z,4.30
2022-11-26T17:10:50.894Z,4.40
2022-11-26T17:13:17.919Z,4.30
2022-11-26T17:15:44.997Z,4.63
2022-11-26T17:18:24.555Z,4.30
2022-11-26T17:20:52.715Z,4.60
2022-11-26T17:23:19.381Z,4.17
2022-11-26T17:25:50.630Z,4.43
2022-11-26T17:28:17.377Z,4.60
2022-11-26T17:30:45.073Z,4.67
2022-11-26T17:33:11.994Z,5.00
2022-11-26T17:35:38.828Z,4.10
2022-11-26T17:38:14.656Z,4.80
2022-11-26T17:40:41.424Z,4.53
2022-11-26T17:43:07.992Z,4.37
2022-11-26T17:45:34.522Z,5.17
2022-11-26T17:48:01.144Z,4.97
2022-11-26T17:50:29.324Z,5.10
2022-11-26T17:52:56.091Z,4.63
2022-11-26T17:55:25.260Z,4.40
2022-11-26T17:57:52.015Z,4.60
2022-11-26T18:00:22.183Z,4.70
2022-11-26T18:02:49.224Z,4.03
2022-11-26T18:05:16.054Z,4.20
2022-11-26T18:07:42.654Z,4.53
2022-11-26T18:10:14.950Z,4.33
2022-11-26T18:12:42.562Z,4.67
2022-11-26T18:15:16.295Z,4.90
2022-11-26T18:17:48.253Z,4.53
2022-11-26T18:20:16.084Z,4.27
2022-11-26T18:22:42.680Z,4.07
2022-11-26T18:25:09.515Z,4.10
2022-11-26T18:27:36.307Z,4.33
2022-11-26T18:30:03.843Z,4.67
2022-11-26T18:32:30.438Z,4.23
2022-11-26T18:34:57.031Z,4.40
2022-11-26T18:37:23.594Z,4.30
2022-11-26T18:39:50.182Z,4.03
2022-11-26T18:45:03.633Z,3.60
2022-11-26T18:47:30.177Z,4.17
2022-11-26T18:49:56.704Z,3.43
2022-11-26T18:52:23.241Z,4.03
2022-11-26T18:54:49.792Z,4.27
2022-11-26T18:57:16.341Z,3.93
2022-11-26T18:59:43.183Z,3.73
2022-11-26T19:02:10.750Z,3.70
2022-11-26T19:04:38.357Z,3.60
2022-11-26T19:07:05.004Z,3.40
2022-11-26T19:09:31.595Z,3.53
2022-11-26T19:11:58.406Z,3.43
2022-11-26T19:14:25.266Z,3.60
2022-11-26T19:16:52.110Z,3.47
2022-11-26T19:19:19.351Z,4.17
2022-11-26T19:21:46.069Z,3.90
2022-11-26T19:24:12.917Z,4.10
2022-11-26T19:26:41.560Z,4.13
2022-11-26T19:29:09.402Z,4.73
2022-11-26T19:31:38.955Z,4.60
2022-11-26T19:34:10.027Z,4.87
2022-11-26T19:36:37.431Z,4.47
2022-11-26T19:39:05.548Z,4.60
2022-11-26T19:41:32.174Z,4.43
2022-11-26T19:44:00.676Z,4.97
2022-11-26T19:46:28.152Z,4.50
2022-11-26T19:48:55.827Z,4.23
2022-11-26T19:51:23.974Z,5.07
2022-11-26T19:53:52.293Z,4.53
2022-11-26T19:56:22.304Z,5.40
2022-11-26T19:58:49.579Z,5.27
2022-11-26T20:01:17.697Z,5.20
2022-11-26T20:03:44.670Z,4.47
2022-11-26T20:06:23.358Z,4.90
2022-11-26T20:08:50.418Z,4.53
2022-11-26T20:11:18.352Z,5.10
2022-11-26T20:13:46.663Z,4.80
2022-11-26T20:16:18.077Z,4.67
2022-11-26T20:18:45.514Z,4.77
2022-11-26T20:21:16.001Z,4.03
2022-11-26T20:23:43.161Z,4.60
2022-11-26T20:26:21.734Z,4.50
2022-11-26T20:28:49.490Z,4.40
2022-11-26T20:31:21.904Z,3.90
2022-11-26T20:33:49.857Z,3.17
2022-11-26T20:36:18.317Z,4.20
2022-11-26T20:38:44.897Z,3.63
2022-11-26T20:41:16.071Z,3.87
2022-11-26T20:43:43.004Z,3.73
2022-11-26T20:46:11.101Z,3.33
2022-11-26T20:48:39.479Z,3.10
2022-11-26T20:51:08.337Z,3.07
2022-11-26T20:53:36.464Z,3.10
2022-11-26T20:56:03.495Z,2.90
2022-11-26T20:58:30.908Z,2.93
2022-11-26T21:00:57.840Z,2.70
2022-11-26T21:03:26.475Z,2.90
2022-11-26T21:05:53.753Z,2.30
2022-11-26T21:08:22.166Z,2.20
2022-11-26T21:10:50.578Z,2.20
2022-11-26T21:13:19.109Z,2.07
2022-11-26T21:15:49.523Z,2.33
2022-11-26T21:18:16.334Z,1.87
2022-11-26T21:20:44.095Z,1.87
2022-11-26T21:23:12.456Z,1.90
2022-11-26T21:25:43.376Z,2.60
2022-11-26T21:28:11.443Z,2.13
2022-11-26T21:30:40.981Z,2.83
2022-11-26T21:33:09.601Z,2.33
2022-11-26T21:35:41.661Z,2.13
2022-11-26T21:38:08.341Z,2.77
2022-11-26T21:40:37.610Z,2.80
2022-11-26T21:43:04.180Z,2.93
2022-11-26T21:45:30.789Z,2.77
2022-11-26T21:47:57.396Z,2.57
2022-11-26T21:50:24.063Z,2.70
2022-11-26T21:52:50.705Z,2.63
2022-11-26T21:55:17.357Z,2.70
2022-11-26T21:57:43.909Z,2.67
2022-11-26T22:00:10.976Z,2.70
2022-11-26T22:02:37.825Z,2.70
2022-11-26T22:05:07.158Z,2.53
2022-11-26T22:07:34.820Z,2.67
2022-11-26T22:10:01.570Z,2.87
2022-11-26T22:12:28.216Z,2.80
2022-11-26T22:14:54.894Z,2.80
2022-11-26T22:17:21.474Z,3.13
2022-11-26T22:19:50.306Z,2.53
2022-11-26T22:22:16.899Z,2.50
2022-11-26T22:24:43.603Z,2.90
2022-11-26T22:27:10.741Z,2.53
2022-11-26T22:29:37.930Z,3.00
2022-11-26T22:32:04.876Z,2.97
2022-11-26T22:34:31.610Z,2.67
2022-11-26T22:36:58.357Z,3.30
2022-11-26T22:39:27.832Z,2.80
2022-11-26T22:41:54.397Z,2.97
2022-11-26T22:44:20.982Z,2.77
2022-11-26T22:46:47.809Z,3.00
2022-11-26T22:49:22.813Z,2.87
2022-11-26T22:51:49.543Z,3.17
2022-11-26T22:54:20.066Z,3.50
2022-11-26T22:56:49.811Z,2.77
2022-11-26T22:59:19.187Z,2.90
2022-11-26T23:01:45.861Z,2.97
2022-11-26T23:04:12.563Z,2.93
2022-11-26T23:06:44.728Z,2.80
2022-11-26T23:09:14.840Z,2.93
2022-11-26T23:11:43.049Z,3.40
2022-11-26T23:14:13.824Z,3.33
2022-11-26T23:16:45.176Z,3.27
2022-11-26T23:19:15.566Z,3.33
2022-11-26T23:21:44.626Z,3.07
2022-11-26T23:24:11.508Z,3.40
2022-11-26T23:26:40.277Z,3.40
2022-11-26T23:29:10.133Z,3.10
2022-11-26T23:31:42.689Z,3.00
2022-11-26T23:34:10.269Z,3.60
2022-11-26T23:36:37.786Z,3.70
2022-11-26T23:39:06.777Z,3.47
2022-11-26T23:41:34.004Z,3.27
2022-11-26T23:44:00.636Z,3.70
2022-11-26T23:46:31.029Z,3.73
2022-11-26T23:48:58.350Z,3.70
2022-11-26T23:51:29.884Z,3.47
2022-11-26T23:53:59.629Z,3.23
2022-11-26T23:56:31.751Z,3.63
2022-11-26T23:59:04.349Z,3.27
